VILK/LKO METAR and TAF weather

Enter ICAO airport designator
Station Type Date Time Source
VILK METAR 2019/02/20 23:00 UTC NOAA

VILK 202300Z 00000KT 0600 R27/1000 RMID/2000 R09/1500 FG FEW020 14/14 Q1016 BECMG 0500 FG


Station Type Date Time Source
VILK Decoded METAR 2019/02/20 23:00 UTC NOAA

Lucknow / Amausi, India (VILK) 26-45N 080-53E 128M
Feb 20, 2019 - 06:00 PM EST / 2019.02.20 2300 UTC
Wind: Calm:0
Visibility: less than 1 mile:0
Sky conditions: mostly clear
Weather: fog
Temperature: 57 F (14 C)
Dew Point: 57 F (14 C)
Relative Humidity: 100%
Pressure (altimeter): 30.00 in. Hg (1016 hPa)
ob: VILK 202300Z 00000KT 0600 R27/1000 RMID/2000 R09/1500 FG FEW020 14/14 Q1016 BECMG 0500 FG
cycle: 23

Station Type Date Time Source
VILK TAF 2019/02/20 18:19 UTC NOAA

TAF VILK 201700Z 2018/2124 VRB02KT 2000 HZ SCT020 BKN100
BECMG 2101/2103 1000 MIFG
BECMG 2104/2106 12005KT 3000 HZ
BECMG 2112/2114 VRB03KT 2000 HZ


Example: see airport list